Time;durP1;ratioP1;P1;durP2;ratioP2;P2;SDS_P1;SDS_P2;PMS_P1;PMS_P2;Temp;Humidity;BMP_temperature;BMP_pressure;BME280_temperature;BME280_humidity;BME280_pressure;Samples;Min_cycle;Max_cycle;Signal;HPM_P1;HPM_P2
2022/04/10 00:04:55;;;;;;;13.27;6.97;;;;;;;-2.14;92.29;101704.03;10424934;28;20069;-81
2022/04/10 00:09:55;;;;;;;26.27;8.07;;;;;;;-2.20;92.54;101702.44;10420648;28;20083;-81
2022/04/10 00:14:56;;;;;;;12.52;7.70;;;;;;;-2.30;92.68;101695.34;10435137;28;20038;-81
2022/04/10 00:19:56;;;;;;;13.13;7.53;;;;;;;-2.33;92.99;101693.38;10439903;28;20071;-81
2022/04/10 00:24:57;;;;;;;15.70;8.75;;;;;;;-2.38;93.23;101697.97;10413324;28;20060;-81
2022/04/10 00:29:57;;;;;;;12.82;8.57;;;;;;;-2.36;93.30;101706.75;10391943;28;20124;-81
2022/04/10 00:34:58;;;;;;;20.30;11.10;;;;;;;-2.34;93.71;101704.38;10423115;28;20120;-80
2022/04/10 00:39:59;;;;;;;14.90;9.00;;;;;;;-2.24;94.06;101698.59;10414149;28;20037;-80
2022/04/10 00:45:00;;;;;;;16.65;9.43;;;;;;;-2.27;93.84;101695.69;10383265;28;20140;-81
2022/04/10 00:50:04;;;;;;;19.33;9.45;;;;;;;-2.28;94.21;101694.81;10393373;28;20095;-81
2022/04/10 00:55:05;;;;;;;19.15;9.70;;;;;;;-2.34;93.91;101690.63;10402689;28;20087;-81
2022/04/10 01:00:10;;;;;;;19.58;8.85;;;;;;;-2.41;93.83;101692.50;10383153;28;20032;-81
2022/04/10 01:05:13;;;;;;;18.52;10.40;;;;;;;-2.41;94.14;101687.38;10375655;28;20030;-81
2022/04/10 01:10:13;;;;;;;28.90;9.82;;;;;;;-2.43;94.06;101690.50;10378391;28;20017;-81
2022/04/10 01:15:14;;;;;;;17.30;10.65;;;;;;;-2.44;94.42;101687.03;10389554;28;20029;-80
2022/04/10 01:20:14;;;;;;;16.17;10.68;;;;;;;-2.48;94.25;101686.50;10363072;28;20049;-80
2022/04/10 01:25:15;;;;;;;19.23;12.68;;;;;;;-2.53;93.99;101683.41;10344279;28;20385;-81
2022/04/10 01:30:16;;;;;;;17.52;10.07;;;;;;;-2.52;94.58;101682.69;10378106;28;20057;-80
2022/04/10 01:35:16;;;;;;;22.42;11.82;;;;;;;-2.37;95.17;101686.06;10405911;28;20036;-81
2022/04/10 01:40:17;;;;;;;19.10;11.15;;;;;;;-2.33;94.92;101685.69;10367525;28;20046;-81
2022/04/10 01:45:17;;;;;;;18.88;12.20;;;;;;;-2.25;95.00;101687.44;10406303;28;20055;-81
2022/04/10 01:50:22;;;;;;;23.63;12.43;;;;;;;-2.16;94.84;101691.78;10443415;28;20385;-81
2022/04/10 01:55:23;;;;;;;19.33;12.30;;;;;;;-2.09;95.11;101702.88;10441174;28;20392;-81
2022/04/10 02:00:23;;;;;;;20.98;13.30;;;;;;;-1.99;95.54;101696.22;10419504;28;20490;-80
2022/04/10 02:05:24;;;;;;;20.08;12.55;;;;;;;-1.93;95.68;101704.59;10428704;28;20124;-80
2022/04/10 02:10:24;;;;;;;21.75;13.68;;;;;;;-1.94;95.61;101696.00;10407723;28;20115;-81
2022/04/10 02:15:25;;;;;;;20.88;13.23;;;;;;;-1.84;95.71;101702.16;10439270;28;20123;-81
2022/04/10 02:20:26;;;;;;;23.50;13.10;;;;;;;-1.67;95.21;101698.84;10423569;28;20029;-81
2022/04/10 02:25:26;;;;;;;25.23;12.88;;;;;;;-1.65;95.05;101707.63;10401481;28;20731;-81
2022/04/10 02:30:27;;;;;;;19.05;11.57;;;;;;;-1.55;95.17;101700.22;10404778;28;20048;-81
2022/04/10 02:35:27;;;;;;;20.23;12.73;;;;;;;-1.36;95.94;101702.22;10411435;28;20020;-81
2022/04/10 02:40:28;;;;;;;26.30;14.50;;;;;;;-1.28;95.67;101700.50;10398553;28;20064;-81
2022/04/10 02:45:28;;;;;;;20.95;13.25;;;;;;;-1.17;95.64;101699.06;10410962;28;20504;-81
2022/04/10 02:50:31;;;;;;;21.52;14.80;;;;;;;-1.07;95.56;101712.16;10417548;28;20044;-81
2022/04/10 02:55:34;;;;;;;23.40;12.88;;;;;;;-0.97;95.87;101709.84;10407284;28;20032;-81
2022/04/10 03:00:36;;;;;;;23.50;13.85;;;;;;;-1.00;94.92;101722.34;10405902;28;20392;-81
2022/04/10 03:05:36;;;;;;;22.23;12.50;;;;;;;-1.13;94.48;101715.00;10433970;28;20035;-81
2022/04/10 03:10:37;;;;;;;19.65;12.70;;;;;;;-1.32;94.15;101735.19;10436515;28;20025;-81
2022/04/10 03:15:37;;;;;;;23.63;11.95;;;;;;;-1.52;93.90;101728.78;10416188;28;20056;-81
2022/04/10 03:20:38;;;;;;;20.25;13.23;;;;;;;-1.48;94.61;101730.94;10429569;28;20064;-81
2022/04/10 03:25:38;;;;;;;22.85;14.68;;;;;;;-1.42;94.97;101734.94;10413084;28;20072;-81
2022/04/10 03:30:39;;;;;;;18.50;14.00;;;;;;;-1.49;94.78;101730.78;10438360;28;20028;-83
2022/04/10 03:35:39;;;;;;;26.52;14.98;;;;;;;-1.62;94.42;101731.09;10440244;28;20067;-80
2022/04/10 03:40:40;;;;;;;23.70;14.30;;;;;;;-1.85;94.22;101734.59;10437754;28;20083;-79
2022/04/10 03:45:41;;;;;;;21.70;14.35;;;;;;;-1.88;94.36;101734.25;10435270;28;20107;-80
2022/04/10 03:50:42;;;;;;;21.20;13.87;;;;;;;-2.08;94.43;101738.06;10422626;28;20037;-80
2022/04/10 03:55:42;;;;;;;22.42;13.50;;;;;;;-2.21;94.50;101739.97;10436723;28;20298;-80
2022/04/10 04:00:44;;;;;;;22.80;13.38;;;;;;;-2.33;94.26;101748.84;10432749;28;20112;-80
2022/04/10 04:05:45;;;;;;;19.38;13.65;;;;;;;-2.41;95.29;101748.91;10406789;28;20416;-81
2022/04/10 04:10:45;;;;;;;26.13;15.82;;;;;;;-2.45;94.85;101761.22;10418864;28;20059;-79
2022/04/10 04:15:46;;;;;;;27.95;15.73;;;;;;;-2.50;94.79;101760.66;10410236;28;20444;-79
2022/04/10 04:20:46;;;;;;;28.67;15.95;;;;;;;-2.62;95.13;101772.09;10412517;28;20104;-81
2022/04/10 04:25:47;;;;;;;32.58;18.58;;;;;;;-2.61;95.11;101772.28;10419520;28;20179;-80
2022/04/10 04:30:47;;;;;;;25.60;16.70;;;;;;;-2.69;95.42;101770.47;10409182;28;20054;-80
2022/04/10 04:35:48;;;;;;;29.83;15.82;;;;;;;-2.74;95.67;101769.94;10435550;28;20090;-81
2022/04/10 04:40:48;;;;;;;31.17;18.30;;;;;;;-2.77;95.53;101771.25;10422988;28;20025;-81
2022/04/10 04:45:49;;;;;;;26.63;14.95;;;;;;;-2.86;95.60;101776.19;10410026;28;20068;-79
2022/04/10 04:50:50;;;;;;;30.55;17.00;;;;;;;-2.89;95.32;101774.22;10426224;28;20036;-79
2022/04/10 04:55:50;;;;;;;32.20;20.88;;;;;;;-2.91;95.59;101788.50;10425153;28;20068;-79
2022/04/10 05:00:51;;;;;;;27.67;19.63;;;;;;;-2.99;95.64;101791.81;10403663;28;20042;-81
2022/04/10 05:05:53;;;;;;;28.92;21.08;;;;;;;-2.91;95.55;101796.19;10414146;28;20132;-81
2022/04/10 05:10:56;;;;;;;30.33;19.00;;;;;;;-2.81;95.83;101783.72;10423684;28;20032;-80
2022/04/10 05:15:57;;;;;;;31.05;19.95;;;;;;;-2.85;95.82;101793.41;10441323;28;20037;-81
2022/04/10 05:20:58;;;;;;;27.55;20.13;;;;;;;-2.68;96.16;101803.06;10420856;28;20139;-81
2022/04/10 05:25:59;;;;;;;29.73;20.00;;;;;;;-2.51;96.34;101817.81;10430581;28;20455;-80
2022/04/10 05:31:02;;;;;;;32.40;19.17;;;;;;;-2.23;96.70;101815.84;10420411;28;20094;-80
2022/04/10 05:36:03;;;;;;;28.67;18.70;;;;;;;-1.66;96.95;101808.50;10428046;28;20371;-80
2022/04/10 05:41:03;;;;;;;39.25;17.27;;;;;;;-1.26;97.97;101827.44;10411744;28;20032;-80
2022/04/10 05:46:04;;;;;;;26.83;14.15;;;;;;;-0.93;97.46;101822.50;10425335;28;20475;-81
2022/04/10 05:51:06;;;;;;;18.70;14.35;;;;;;;-0.54;96.17;101826.66;10393966;28;20030;-81
2022/04/10 05:56:07;;;;;;;;;;;;;;;0.46;93.81;101837.03;10402286;28;20391;-81
2022/04/10 06:01:07;;;;;;;13.25;9.18;;;;;;;1.68;87.90;101846.72;10431006;28;19917;-81
2022/04/10 06:06:08;;;;;;;12.68;6.80;;;;;;;2.96;81.15;101841.72;10428981;28;20452;-81
2022/04/10 06:11:08;;;;;;;11.95;6.97;;;;;;;4.13;74.88;101841.88;10409700;28;20047;-81
2022/04/10 06:16:09;;;;;;;10.68;5.85;;;;;;;5.44;70.23;101849.69;10421859;28;20064;-80
2022/04/10 06:21:11;;;;;;;8.02;6.07;;;;;;;6.46;66.05;101863.22;10398255;28;20028;-79
2022/04/10 06:26:12;;;;;;;6.32;5.03;;;;;;;7.42;63.96;101858.44;10405863;28;20118;-78
2022/04/10 06:31:12;;;;;;;9.68;5.38;;;;;;;8.21;61.32;101853.88;10425828;28;20873;-78
2022/04/10 06:36:13;;;;;;;7.50;5.15;;;;;;;8.96;58.54;101863.59;10435137;28;20429;-77
2022/04/10 06:41:13;;;;;;;8.60;5.47;;;;;;;9.42;57.23;101870.22;10411374;28;20029;-79
2022/04/10 06:46:14;;;;;;;7.93;5.50;;;;;;;9.81;56.28;101860.63;10419592;28;20414;-76
2022/04/10 06:51:16;;;;;;;11.55;5.75;;;;;;;10.55;54.81;101864.53;10415467;28;20033;-76
2022/04/10 06:56:17;;;;;;;;;;;;;;;10.79;55.05;101874.75;10420990;28;20078;-76
2022/04/10 07:01:21;;;;;;;9.20;5.90;;;;;;;11.24;52.65;101877.53;10425017;28;19969;-77
2022/04/10 07:06:21;;;;;;;11.40;6.15;;;;;;;10.95;54.13;101874.00;10411814;28;20106;-77
2022/04/10 07:11:22;;;;;;;12.15;5.57;;;;;;;11.74;52.89;101873.50;10440907;28;20035;-77
2022/04/10 07:16:22;;;;;;;14.30;7.65;;;;;;;12.04;51.27;101873.50;10389060;28;20107;-76
2022/04/10 07:26:42;;;;;;;9.05;6.03;;;;;;;12.60;48.85;101879.25;10452461;28;20036;-79
2022/04/10 07:31:42;;;;;;;10.50;6.68;;;;;;;12.99;48.13;101888.34;10418434;28;20084;-79
2022/04/10 07:36:43;;;;;;;14.40;7.50;;;;;;;13.36;48.91;101890.31;10472640;28;20032;-79
2022/04/10 07:41:44;;;;;;;15.80;6.95;;;;;;;14.32;45.93;101892.50;10458798;28;20064;-77
2022/04/10 07:52:04;;;;;;;12.70;5.40;;;;;;;12.84;48.41;101899.81;10383083;28;20039;-79
2022/04/10 07:57:05;;;;;;;18.65;7.03;;;;;;;14.00;44.96;101899.72;10357783;28;20037;-79
2022/04/10 08:02:05;;;;;;;13.63;6.47;;;;;;;15.25;42.41;101912.69;10395709;28;20659;-77
2022/04/10 08:07:06;;;;;;;8.15;3.65;;;;;;;15.60;40.06;101912.47;10413333;28;20033;-77
2022/04/10 08:12:07;;;;;;;3.92;2.47;;;;;;;16.08;38.44;101924.19;10395322;28;20477;-77
2022/04/10 08:17:11;;;;;;;4.60;2.25;;;;;;;16.63;38.14;101914.94;10357994;28;20124;-77
2022/04/10 08:22:12;;;;;;;10.35;3.30;;;;;;;15.91;38.32;101926.09;10440119;28;20083;-77
2022/04/10 08:27:12;;;;;;;7.68;3.13;;;;;;;17.22;36.81;101924.25;10397841;28;20061;-76
2022/04/10 08:32:13;;;;;;;6.97;3.13;;;;;;;16.10;38.41;101933.94;10398616;28;20057;-77
2022/04/10 08:37:13;;;;;;;9.65;3.17;;;;;;;13.28;43.08;101937.25;10397385;28;20125;-77
2022/04/10 08:42:14;;;;;;;5.63;2.58;;;;;;;16.08;39.62;101942.66;10354491;28;20116;-78
2022/04/10 08:47:20;;;;;;;10.23;4.43;;;;;;;17.10;34.06;101937.91;10403616;28;20084;-76
2022/04/10 08:52:21;;;;;;;5.00;2.20;;;;;;;15.24;35.70;101941.63;10440363;28;20120;-77
2022/04/10 08:57:22;;;;;;;3.27;2.00;;;;;;;15.97;33.94;101945.75;10422333;28;20116;-76
2022/04/10 09:02:25;;;;;;;2.38;1.50;;;;;;;13.93;37.90;101955.50;10413085;28;20075;-76
2022/04/10 09:07:26;;;;;;;7.25;2.42;;;;;;;13.95;38.15;101959.13;10416025;28;20051;-78
2022/04/10 09:12:26;;;;;;;3.38;1.63;;;;;;;12.70;39.10;101966.44;10431276;28;20057;-77
2022/04/10 09:17:29;;;;;;;6.43;2.55;;;;;;;11.56;40.50;101961.53;10411372;28;20155;-79
2022/04/10 09:22:37;;;;;;;5.88;1.45;;;;;;;10.36;41.67;101961.88;10426874;28;20017;-78
2022/04/10 09:27:48;;;;;;;6.18;2.78;;;;;;;10.09;45.92;101967.09;10376185;28;20579;-78
2022/04/10 09:32:51;;;;;;;3.33;1.60;;;;;;;9.60;46.24;101966.34;10421166;28;20400;-78
2022/04/10 09:37:52;;;;;;;8.10;1.77;;;;;;;10.76;44.23;101979.31;10433663;28;20492;-79
2022/04/10 09:43:06;;;;;;;3.67;2.20;;;;;;;11.31;41.88;101970.53;10440865;28;20056;-79
2022/04/10 09:48:22;;;;;;;5.32;2.65;;;;;;;14.15;38.46;101952.25;10395277;28;20053;-78
2022/04/10 09:53:23;;;;;;;4.30;1.70;;;;;;;16.89;33.33;101938.84;10398575;28;20045;-79
2022/04/10 09:58:24;;;;;;;3.47;1.58;;;;;;;18.47;29.35;101946.22;10435837;28;20476;-79
2022/04/10 10:03:28;;;;;;;5.10;1.98;;;;;;;17.51;33.38;101938.53;10433609;28;20040;-79
2022/04/10 10:08:29;;;;;;;6.53;2.20;;;;;;;14.96;37.11;101930.69;10394738;28;20041;-79
2022/04/10 10:13:29;;;;;;;9.88;3.20;;;;;;;12.44;41.81;101945.78;10395920;28;20053;-79
2022/04/10 10:18:30;;;;;;;7.07;2.58;;;;;;;11.75;46.86;101956.59;10434034;28;20503;-78
2022/04/10 10:23:31;;;;;;;5.40;2.33;;;;;;;16.02;39.02;101945.03;10450941;28;20064;-79
2022/04/10 10:29:05;;;;;;;11.90;3.22;;;;;;;17.45;36.14;101940.97;10435556;28;20491;-79
2022/04/10 10:34:07;;;;;;;5.45;2.78;;;;;;;17.95;32.93;101933.03;10454306;28;20548;-79
2022/04/10 10:39:07;;;;;;;4.17;1.50;;;;;;;17.26;33.21;101944.69;10491929;28;20058;-79
2022/04/10 10:44:34;;;;;;;8.02;2.53;;;;;;;16.90;33.33;101939.75;10457770;28;20060;-85
2022/04/10 10:49:48;;;;;;;7.40;2.67;;;;;;;17.59;33.22;101942.34;10468023;28;20052;-83
2022/04/10 10:54:58;;;;;;;7.25;2.28;;;;;;;20.21;30.04;101928.19;10484122;28;20095;-80
2022/04/10 11:00:10;;;;;;;4.78;2.25;;;;;;;17.96;31.12;101937.47;10462209;28;20039;-83
2022/04/10 11:05:33;;;;;;;4.18;2.22;;;;;;;16.39;32.82;101939.53;10438307;28;20025;-83
2022/04/10 11:10:52;;;;;;;4.47;1.92;;;;;;;18.48;29.87;101932.13;10449786;28;20028;-84
2022/04/10 11:15:54;;;;;;;7.25;3.55;;;;;;;15.52;33.84;101925.28;10468986;28;20141;-82
2022/04/10 11:20:56;;;;;;;8.93;2.00;;;;;;;14.94;34.28;101936.75;10392957;28;20028;-81
2022/04/10 11:26:06;;;;;;;3.40;1.40;;;;;;;18.52;28.97;101920.78;10401687;28;20117;-83
2022/04/10 11:31:25;;;;;;;3.35;1.92;;;;;;;17.22;32.69;101927.78;10435175;28;20033;-82
2022/04/10 11:36:25;;;;;;;7.38;2.00;;;;;;;17.02;31.29;101921.75;10410078;28;20046;-84
2022/04/10 11:41:26;;;;;;;6.80;1.80;;;;;;;15.19;35.40;101936.13;10453730;28;20029;-84
2022/04/10 11:46:29;;;;;;;4.45;2.33;;;;;;;15.04;34.39;101935.44;10441505;28;20207;-80
2022/04/10 11:51:30;;;;;;;3.75;2.30;;;;;;;16.51;33.39;101923.28;10448086;28;20124;-84
2022/04/10 11:56:30;;;;;;;4.97;2.25;;;;;;;15.31;31.39;101924.34;10433238;28;20033;-86
2022/04/10 12:01:31;;;;;;;4.10;1.58;;;;;;;17.32;30.37;101911.41;10425033;28;20126;-80
2022/04/10 12:06:31;;;;;;;4.53;2.08;;;;;;;18.75;28.20;101902.91;10420728;28;20060;-80
2022/04/10 12:11:42;;;;;;;5.68;1.73;;;;;;;20.02;27.85;101912.63;10429502;28;20029;-86
2022/04/10 12:16:43;;;;;;;7.93;1.83;;;;;;;19.33;27.92;101907.28;10427566;28;20599;-88
2022/04/10 12:21:48;;;;;;;5.72;1.77;;;;;;;20.88;25.49;101900.50;10423328;28;20029;-82
2022/04/10 12:26:49;;;;;;;4.63;1.60;;;;;;;17.68;28.91;101909.13;10416592;28;20112;-84
2022/04/10 12:31:50;;;;;;;5.50;1.75;;;;;;;14.19;34.79;101914.72;10430622;28;20120;-81
2022/04/10 12:36:51;;;;;;;3.35;1.67;;;;;;;14.02;36.01;101907.72;10426955;28;20560;-81
2022/04/10 12:42:03;;;;;;;5.53;2.30;;;;;;;17.56;30.37;101893.72;10435971;28;20048;-81
2022/04/10 12:47:06;;;;;;;3.50;1.55;;;;;;;19.70;27.07;101888.78;10424312;28;20052;-81
2022/04/10 12:52:09;;;;;;;5.13;2.22;;;;;;;18.03;28.62;101890.91;10400651;28;20029;-82
2022/04/10 12:57:11;;;;;;;6.07;2.17;;;;;;;18.23;29.70;101888.03;10394108;28;20465;-83
2022/04/10 13:02:28;;;;;;;4.93;2.35;;;;;;;20.32;25.61;101874.38;10397173;28;20072;-85
2022/04/10 13:07:30;;;;;;;5.55;2.35;;;;;;;18.49;26.25;101884.44;10412498;28;20029;-84
2022/04/10 13:12:34;;;;;;;3.95;1.33;;;;;;;15.57;27.67;101881.53;10390487;28;20025;-85
2022/04/10 13:17:36;;;;;;;4.80;1.60;;;;;;;16.79;27.42;101875.88;10383987;28;20537;-84
2022/04/10 13:22:38;;;;;;;3.58;1.92;;;;;;;19.82;25.23;101870.50;10402755;28;20518;-87
2022/04/10 13:27:38;;;;;;;3.70;2.10;;;;;;;20.55;26.62;101869.59;10417642;28;20048;-86
2022/04/10 13:32:39;;;;;;;4.45;2.40;;;;;;;19.89;26.64;101871.56;10418897;28;20068;-84
2022/04/10 13:37:39;;;;;;;5.07;2.13;;;;;;;20.80;24.31;101852.44;10379046;28;20112;-84
2022/04/10 13:42:40;;;;;;;4.03;2.25;;;;;;;21.32;25.85;101853.44;10406817;28;20064;-87
2022/04/10 13:47:41;;;;;;;7.32;2.50;;;;;;;21.03;25.50;101852.00;10438480;28;20049;-83
2022/04/10 13:52:42;;;;;;;13.35;9.45;;;;;;;20.38;26.35;101842.63;10421093;28;20507;-83
2022/04/10 13:57:43;;;;;;;4.43;2.33;;;;;;;19.42;27.21;101843.81;10440865;28;20065;-84
2022/04/10 14:02:43;;;;;;;6.60;2.25;;;;;;;19.73;25.34;101843.69;10462174;28;20123;-84
2022/04/10 14:07:44;;;;;;;4.25;2.00;;;;;;;20.53;23.51;101834.97;10464881;28;20514;-83
2022/04/10 14:12:44;;;;;;;4.07;2.92;;;;;;;19.70;26.95;101839.22;10439471;28;20539;-83
2022/04/10 14:17:45;;;;;;;4.53;2.60;;;;;;;18.76;25.82;101835.75;10466183;28;20035;-82
2022/04/10 14:22:45;;;;;;;3.30;1.90;;;;;;;18.93;27.19;101838.91;10441593;28;20128;-82
2022/04/10 14:27:46;;;;;;;6.00;2.67;;;;;;;18.94;29.46;101829.19;10423475;28;20495;-81
2022/04/10 14:32:47;;;;;;;3.22;2.10;;;;;;;18.63;27.38;101844.22;10445545;28;20058;-82
2022/04/10 14:37:48;;;;;;;7.22;2.85;;;;;;;17.42;28.15;101837.66;10426180;28;20072;-81
2022/04/10 14:42:48;;;;;;;5.45;2.17;;;;;;;16.37;27.91;101832.91;10443968;28;20045;-81
2022/04/10 14:47:49;;;;;;;4.90;2.03;;;;;;;16.96;29.88;101837.75;10418207;28;20044;-81
2022/04/10 14:52:50;;;;;;;3.58;2.13;;;;;;;17.03;28.95;101833.66;10442038;28;20495;-81
2022/04/10 14:57:50;;;;;;;6.10;1.98;;;;;;;17.55;31.03;101839.00;10428523;28;20078;-81
2022/04/10 15:02:51;;;;;;;9.63;5.15;;;;;;;17.86;27.33;101826.78;10405756;28;20034;-83
2022/04/10 15:07:58;;;;;;;6.68;3.35;;;;;;;17.32;28.81;101832.03;10424605;28;20037;-81
2022/04/10 15:12:59;;;;;;;6.43;3.63;;;;;;;17.42;28.37;101824.41;10444969;28;20059;-82
2022/04/10 15:18:01;;;;;;;5.85;2.67;;;;;;;16.69;28.66;101824.44;10440086;28;20499;-80
2022/04/10 15:23:01;;;;;;;5.95;2.40;;;;;;;15.12;32.84;101818.03;10435114;28;20063;-84
2022/04/10 15:28:02;;;;;;;3.47;2.08;;;;;;;14.24;32.77;101820.16;10421542;28;20548;-85
2022/04/10 15:33:02;;;;;;;5.15;2.38;;;;;;;13.42;34.30;101821.41;10421166;28;20025;-82
2022/04/10 15:38:03;;;;;;;6.00;3.03;;;;;;;12.96;33.23;101817.22;10445601;28;20033;-83
2022/04/10 15:43:04;;;;;;;6.35;2.60;;;;;;;12.29;34.16;101819.78;10449624;28;20033;-82
2022/04/10 15:48:09;;;;;;;7.07;4.25;;;;;;;12.42;34.97;101810.91;10436184;28;20064;-81
2022/04/10 15:53:10;;;;;;;5.90;3.30;;;;;;;12.89;33.44;101800.25;10422099;28;20041;-81
2022/04/10 15:58:16;;;;;;;3.45;2.08;;;;;;;12.31;35.60;101809.41;10437407;28;20052;-81
2022/04/10 16:03:16;;;;;;;6.32;2.88;;;;;;;11.68;35.94;101806.69;10439748;28;20029;-82
2022/04/10 16:08:17;;;;;;;4.47;2.55;;;;;;;11.01;35.55;101805.38;10399264;28;20026;-82
2022/04/10 16:13:17;;;;;;;4.63;2.53;;;;;;;10.41;39.80;101803.47;10431122;28;20045;-81
2022/04/10 16:18:18;;;;;;;3.75;2.75;;;;;;;10.24;39.37;101804.97;10437231;28;20460;-81
2022/04/10 16:23:19;;;;;;;6.13;3.85;;;;;;;10.24;40.16;101794.50;10404037;28;20096;-81
2022/04/10 16:34:17;;;;;;;4.05;2.22;;;;;;;10.37;39.12;101793.59;10422540;28;20025;-82
2022/04/10 16:38:59;;;;;;;3.80;2.17;;;;;;;10.38;37.28;101784.94;10415184;28;20041;-82
2022/04/10 16:43:59;;;;;;;5.35;3.00;;;;;;;10.13;38.94;101793.84;10425539;28;20045;-81
2022/04/10 16:49:00;;;;;;;6.20;3.40;;;;;;;10.01;37.39;101793.03;10413750;28;20061;-82
2022/04/10 16:54:46;;;;;;;4.35;3.00;;;;;;;9.91;39.87;101793.25;10433885;28;20435;-82
2022/04/10 16:59:21;;;;;;;7.10;3.17;;;;;;;9.73;40.89;101791.25;10437438;28;20028;-81
2022/04/10 17:04:22;;;;;;;6.30;2.83;;;;;;;9.58;38.61;101793.72;10432113;28;20022;-82
2022/04/10 17:09:22;;;;;;;3.42;2.17;;;;;;;9.33;39.25;101789.47;10411070;28;20182;-82
2022/04/10 17:14:23;;;;;;;4.85;2.95;;;;;;;9.04;40.61;101791.00;10436800;28;20114;-82
2022/04/10 17:19:23;;;;;;;7.57;4.57;;;;;;;8.69;43.12;101805.13;10418602;28;20021;-82
2022/04/10 17:24:24;;;;;;;8.80;2.58;;;;;;;8.40;44.16;101803.94;10412578;28;20499;-82
2022/04/10 17:29:24;;;;;;;5.22;2.38;;;;;;;8.06;44.31;101802.44;10393622;28;20568;-82
2022/04/10 17:34:25;;;;;;;4.70;1.77;;;;;;;7.85;49.94;101804.34;10418314;28;20025;-82
2022/04/10 17:39:25;;;;;;;4.15;1.90;;;;;;;7.55;51.84;101793.47;10419215;28;20033;-82
2022/04/10 17:44:26;;;;;;;5.35;2.70;;;;;;;7.30;49.82;101811.56;10410233;28;20132;-82
2022/04/10 17:49:27;;;;;;;5.55;2.90;;;;;;;7.18;50.87;101816.72;10428420;28;20041;-82
2022/04/10 17:54:27;;;;;;;4.65;1.83;;;;;;;6.94;52.34;101816.66;10417958;28;20056;-81
2022/04/10 17:59:27;;;;;;;4.25;1.70;;;;;;;6.68;52.80;101825.03;10400766;28;20042;-82
2022/04/10 18:04:28;;;;;;;6.20;2.95;;;;;;;6.39;56.45;101821.03;10398999;28;20100;-82
2022/04/10 18:09:29;;;;;;;4.78;3.15;;;;;;;6.15;52.39;101828.66;10406875;28;20547;-82
2022/04/10 18:14:29;;;;;;;6.50;2.60;;;;;;;5.81;55.47;101821.56;10393575;28;20109;-81
2022/04/10 18:19:30;;;;;;;8.40;2.35;;;;;;;5.40;55.94;101826.84;10407604;28;20041;-81
2022/04/10 18:24:30;;;;;;;4.65;2.38;;;;;;;5.15;57.75;101829.97;10385117;28;20556;-83
2022/04/10 18:29:32;;;;;;;8.55;4.45;;;;;;;4.80;57.74;101831.38;10353005;28;20129;-82
2022/04/10 18:34:32;;;;;;;5.07;2.30;;;;;;;4.62;60.55;101829.75;10373618;28;20022;-81
2022/04/10 18:39:33;;;;;;;4.30;2.83;;;;;;;4.43;60.01;101832.41;10352711;28;20048;-82
2022/04/10 18:44:33;;;;;;;3.55;2.63;;;;;;;4.14;60.02;101834.25;10400284;28;20519;-81
2022/04/10 18:49:41;;;;;;;4.65;2.92;;;;;;;4.03;60.65;101838.47;10453731;28;20025;-82
2022/04/10 18:54:42;;;;;;;10.02;3.83;;;;;;;3.90;60.53;101838.13;10444519;28;20029;-79
2022/04/10 18:59:45;;;;;;;4.40;2.78;;;;;;;3.72;60.96;101833.09;10471682;28;20484;-79
2022/04/10 19:04:47;;;;;;;7.78;4.25;;;;;;;3.50;62.67;101840.63;10444431;28;20024;-79
2022/04/10 19:09:48;;;;;;;8.03;4.13;;;;;;;3.42;63.55;101839.91;10433822;28;20099;-79
2022/04/10 19:14:48;;;;;;;5.50;3.17;;;;;;;3.26;63.28;101844.41;10444083;28;20128;-79
2022/04/10 19:19:49;;;;;;;9.00;4.15;;;;;;;3.07;63.40;101840.13;10450412;28;20111;-79
2022/04/10 19:24:49;;;;;;;5.20;3.70;;;;;;;2.91;65.16;101840.38;10488589;28;20091;-79
2022/04/10 19:29:50;;;;;;;5.60;3.17;;;;;;;2.74;67.56;101843.94;10441302;28;20075;-79
2022/04/10 19:34:51;;;;;;;4.77;3.50;;;;;;;2.75;67.86;101851.84;10455408;28;20070;-79
2022/04/10 19:39:53;;;;;;;8.27;4.38;;;;;;;2.56;68.18;101841.41;10483105;28;20690;-78
2022/04/10 19:44:53;;;;;;;8.33;3.63;;;;;;;2.56;68.69;101853.44;10478085;28;20060;-81
2022/04/10 19:49:54;;;;;;;8.80;4.00;;;;;;;2.49;68.88;101851.94;10459109;28;20306;-82
2022/04/10 19:54:54;;;;;;;8.15;5.07;;;;;;;2.39;67.97;101849.22;10455655;28;20099;-81
2022/04/10 19:59:56;;;;;;;6.28;4.47;;;;;;;2.38;68.16;101850.91;10440279;28;20068;-81
2022/04/10 20:04:56;;;;;;;12.05;5.20;;;;;;;2.25;67.27;101856.56;10474669;28;20017;-81
2022/04/10 20:09:57;;;;;;;11.23;5.78;;;;;;;2.10;68.96;101857.66;10424409;28;20065;-80
2022/04/10 20:14:57;;;;;;;7.38;5.60;;;;;;;2.00;70.57;101864.50;10458334;28;20061;-81
2022/04/10 20:19:58;;;;;;;8.55;5.68;;;;;;;1.87;72.61;101864.03;10482732;28;20115;-81
2022/04/10 20:25:00;;;;;;;9.48;6.10;;;;;;;1.79;73.48;101862.38;10479122;28;20139;-81
2022/04/10 20:30:00;;;;;;;7.75;5.32;;;;;;;1.64;73.64;101854.94;10458451;28;20033;-80
2022/04/10 20:35:01;;;;;;;13.48;6.35;;;;;;;1.59;73.46;101857.06;10458069;28;20124;-81
2022/04/10 20:40:03;;;;;;;9.13;6.35;;;;;;;1.54;74.54;101858.28;10495886;28;20075;-81
2022/04/10 20:45:03;;;;;;;9.40;7.03;;;;;;;1.47;73.59;101855.84;10443132;28;20453;-80
2022/04/10 20:50:08;;;;;;;8.40;6.30;;;;;;;1.38;73.50;101855.81;10479124;28;20041;-81
2022/04/10 20:55:10;;;;;;;10.27;6.82;;;;;;;1.36;73.52;101857.34;10497766;28;20036;-80
2022/04/10 21:00:16;;;;;;;14.32;6.82;;;;;;;1.42;72.98;101852.78;10419738;28;20431;-80
2022/04/10 21:05:19;;;;;;;11.18;6.70;;;;;;;1.48;72.39;101847.34;10454650;28;20488;-80
2022/04/10 21:15:38;;;;;;;11.15;5.90;;;;;;;1.46;73.96;101851.44;10442259;28;20127;-80
2022/04/10 21:20:39;;;;;;;12.48;7.97;;;;;;;1.41;73.93;101842.34;10436680;28;20029;-80
2022/04/10 21:25:40;;;;;;;12.90;7.88;;;;;;;1.39;74.50;101842.16;10433441;28;20029;-80
2022/04/10 21:30:40;;;;;;;9.55;6.68;;;;;;;1.37;74.11;101840.19;10479029;28;20495;-80
2022/04/10 21:35:41;;;;;;;9.38;6.82;;;;;;;1.33;75.32;101843.22;10475201;28;20131;-80
2022/04/10 21:40:41;;;;;;;14.20;8.32;;;;;;;1.40;74.80;101830.19;10453640;28;20072;-80
2022/04/10 21:45:44;;;;;;;15.48;8.23;;;;;;;1.43;75.06;101833.97;10495264;28;20048;-80
2022/04/10 21:50:45;;;;;;;11.07;7.65;;;;;;;1.54;73.97;101826.41;10496039;28;20033;-80
2022/04/10 21:55:46;;;;;;;12.35;8.00;;;;;;;1.48;74.61;101825.78;10494283;28;20029;-81
2022/04/10 22:00:46;;;;;;;12.27;7.32;;;;;;;1.41;75.27;101822.59;10396131;28;20034;-80
2022/04/10 22:05:47;;;;;;;10.10;8.40;;;;;;;1.35;75.70;101824.56;10417289;28;20515;-80
2022/04/10 22:10:47;;;;;;;11.88;7.97;;;;;;;1.35;76.23;101819.41;10477105;28;20112;-80
2022/04/10 22:15:49;;;;;;;12.10;8.98;;;;;;;1.37;75.76;101817.00;10492086;28;20059;-80
2022/04/10 22:20:50;;;;;;;12.35;8.52;;;;;;;1.31;76.53;101813.03;10435824;28;20115;-80
2022/04/10 22:25:50;;;;;;;13.57;9.27;;;;;;;1.28;76.97;101810.16;10437125;28;20028;-80
2022/04/10 22:30:51;;;;;;;10.95;7.55;;;;;;;1.26;76.92;101816.81;10459914;28;20119;-80
2022/04/10 22:35:51;;;;;;;16.95;9.40;;;;;;;1.32;76.92;101811.34;10477065;28;20025;-80
2022/04/10 22:40:52;;;;;;;11.40;9.18;;;;;;;1.38;76.28;101804.22;10477929;28;20044;-80
2022/04/10 22:45:52;;;;;;;13.02;9.52;;;;;;;1.41;76.47;101804.53;10456796;28;20087;-81
2022/04/10 22:50:53;;;;;;;11.85;8.27;;;;;;;1.45;76.50;101808.34;10456278;28;20041;-80
2022/04/10 22:55:53;;;;;;;12.88;8.70;;;;;;;1.42;76.63;101806.34;10445966;28;20025;-80
2022/04/10 23:00:54;;;;;;;11.70;9.13;;;;;;;1.47;76.95;101806.81;10501443;28;20039;-81
2022/04/10 23:05:55;;;;;;;13.77;9.73;;;;;;;1.41;77.16;101793.31;10464186;28;20029;-81
2022/04/10 23:10:55;;;;;;;12.50;9.18;;;;;;;1.42;77.47;101800.31;10479597;28;20112;-80
2022/04/10 23:15:57;;;;;;;14.50;9.40;;;;;;;1.41;77.91;101811.38;10496430;28;20024;-81
2022/04/10 23:20:57;;;;;;;12.70;8.87;;;;;;;1.34;78.12;101804.69;10426944;28;20039;-79
2022/04/10 23:25:58;;;;;;;14.48;8.32;;;;;;;1.27;79.15;101807.41;10444544;28;20019;-81